Terminal Aerodrome Forecast
Issued by NWS

Home | Current Version | Previous Version | Graphics & Text | Print | Product List | Glossary On
Versions: 1 2 3 4 5 6 7 8 9 10 11 12 13 14 15 16 17 18 19 20 21 22 23 24 25 26 27
111
FTUS43 KLOT 230644 AAA
TAFMDW
TAF AMD
KMDW 230644Z 2307/2406 20012G22KT P6SM BKN012 OVC015
     FM230800 22012G20KT P6SM -SHRA BKN010 OVC020
      TEMPO 2309/2311 2SM -TSRA BKN015CB BKN050
     FM231200 36011KT P6SM BKN012 BKN050
     FM231400 35010KT P6SM SCT020 BKN035
     FM231800 34011G18KT P6SM SCT035 BKN200=

USA.gov is the U.S. government's official web portal to all federal, state and local government web resources and services.